Time;durP1;ratioP1;P1;durP2;ratioP2;P2;SDS_P1;SDS_P2;PMS_P1;PMS_P2;Temp;Humidity;BMP_temperature;BMP_pressure;BME280_temperature;BME280_humidity;BME280_pressure;Samples;Min_cycle;Max_cycle;Signal;HPM_P1;HPM_P2
2024/01/02 00:01:11;;;;;;;1.50;1.17;;;22.80;65.40;;;;;;4956972;29;20530;-90
2024/01/02 00:03:38;;;;;;;2.70;1.30;;;22.80;65.40;;;;;;4957732;29;20449;-92
2024/01/02 00:06:05;;;;;;;2.47;1.27;;;22.80;65.40;;;;;;4957334;29;20537;-91
2024/01/02 00:08:33;;;;;;;1.67;1.07;;;22.70;65.30;;;;;;4957218;29;20565;-92
2024/01/02 00:11:00;;;;;;;1.30;1.07;;;22.70;65.30;;;;;;4957277;29;20476;-90
2024/01/02 00:13:27;;;;;;;1.40;0.90;;;22.70;66.10;;;;;;4957428;29;20445;-90
2024/01/02 00:15:54;;;;;;;1.77;1.10;;;22.80;65.40;;;;;;4956827;29;20536;-93
2024/01/02 00:18:21;;;;;;;2.07;1.10;;;22.70;65.30;;;;;;4956991;29;20533;-91
2024/01/02 00:20:47;;;;;;;1.70;1.00;;;22.70;65.30;;;;;;4957119;29;20452;-91
2024/01/02 00:23:14;;;;;;;2.23;1.30;;;22.70;65.20;;;;;;4957003;29;20470;-91
2024/01/02 00:25:42;;;;;;;1.97;0.80;;;22.70;65.30;;;;;;4957350;29;20981;-91
2024/01/02 00:28:10;;;;;;;3.80;1.33;;;22.70;65.30;;;;;;4956629;29;20573;-93
2024/01/02 00:30:37;;;;;;;1.47;0.90;;;22.60;65.20;;;;;;4956579;29;20542;-92
2024/01/02 00:33:04;;;;;;;1.53;0.90;;;22.60;65.10;;;;;;4956757;29;20451;-91
2024/01/02 00:35:31;;;;;;;1.70;1.00;;;22.60;65.10;;;;;;4956887;29;20473;-92
2024/01/02 00:37:58;;;;;;;1.70;1.20;;;22.60;65.20;;;;;;4956443;29;20540;-91
2024/01/02 00:40:25;;;;;;;2.13;1.00;;;22.60;65.10;;;;;;4955678;28;20449;-93
2024/01/02 00:42:53;;;;;;;1.77;1.10;;;22.60;65.10;;;;;;4956745;29;20540;-90
2024/01/02 00:45:20;;;;;;;1.73;1.00;;;22.60;65.20;;;;;;4956802;29;20477;-93
2024/01/02 00:47:47;;;;;;;2.47;1.30;;;22.60;65.10;;;;;;4956988;29;20485;-90
2024/01/02 00:50:14;;;;;;;1.50;0.90;;;22.60;65.00;;;;;;4956221;29;20438;-91
2024/01/02 00:52:41;;;;;;;1.53;1.20;;;22.50;64.90;;;;;;4956564;29;20556;-93
2024/01/02 00:55:08;;;;;;;1.57;1.00;;;22.50;64.90;;;;;;4956484;29;20442;-91
2024/01/02 00:57:35;;;;;;;2.67;1.10;;;22.50;64.90;;;;;;4956351;29;20963;-93
2024/01/02 01:00:05;;;;;;;1.20;0.93;;;22.50;64.80;;;;;;4956469;29;20458;-90
2024/01/02 01:02:32;;;;;;;2.33;1.10;;;22.50;64.80;;;;;;4956039;29;20930;-91
2024/01/02 01:04:59;;;;;;;1.77;1.17;;;22.50;64.80;;;;;;4956213;29;20450;-91
2024/01/02 01:07:26;;;;;;;1.90;0.90;;;22.50;64.90;;;;;;4955847;29;21004;-91
2024/01/02 01:09:53;;;;;;;1.40;1.00;;;22.50;64.90;;;;;;4955904;29;20960;-91
2024/01/02 01:12:20;;;;;;;1.30;0.90;;;22.50;64.90;;;;;;4956037;29;20476;-93
2024/01/02 01:14:47;;;;;;;1.50;0.87;;;22.50;64.90;;;;;;4956620;29;20536;-90
2024/01/02 01:17:15;;;;;;;1.90;1.30;;;22.60;65.10;;;;;;4956139;29;20448;-91
2024/01/02 01:19:42;;;;;;;1.77;1.10;;;22.50;64.90;;;;;;4955736;29;20533;-91
2024/01/02 01:22:09;;;;;;;2.17;1.57;;;22.40;64.80;;;;;;4955704;29;20462;-91
2024/01/02 01:24:36;;;;;;;1.20;0.80;;;22.40;64.80;;;;;;4955956;29;20457;-91
2024/01/02 01:27:03;;;;;;;1.50;1.00;;;22.50;64.90;;;;;;4955547;29;20485;-92
2024/01/02 01:29:30;;;;;;;1.53;1.00;;;22.40;64.80;;;;;;4955855;29;20536;-90
2024/01/02 01:31:57;;;;;;;1.40;1.00;;;22.40;64.80;;;;;;4955985;29;20542;-92
2024/01/02 01:34:25;;;;;;;2.00;1.00;;;22.40;64.80;;;;;;4955514;29;20454;-91
2024/01/02 01:36:52;;;;;;;2.07;1.00;;;22.50;65.00;;;;;;4955708;29;20560;-91
2024/01/02 01:39:19;;;;;;;2.03;0.90;;;22.40;64.90;;;;;;4955440;29;20446;-90
2024/01/02 01:41:46;;;;;;;1.40;0.90;;;22.40;64.90;;;;;;4955549;29;20446;-91
2024/01/02 01:44:13;;;;;;;2.47;1.20;;;22.40;64.90;;;;;;4955707;29;20564;-93
2024/01/02 01:46:41;;;;;;;1.77;1.10;;;22.40;64.80;;;;;;4955383;29;21008;-92
2024/01/02 01:49:11;;;;;;;1.30;0.80;;;22.50;64.80;;;;;;4955544;29;20477;-90
2024/01/02 01:51:42;;;;;;;1.77;1.00;;;22.40;64.70;;;;;;4955069;28;20466;-90
2024/01/02 01:54:11;;;;;;;1.40;1.00;;;22.40;64.70;;;;;;4955475;29;20434;-90
2024/01/02 01:56:41;;;;;;;2.30;1.00;;;22.40;64.80;;;;;;4955499;29;20474;-90
2024/01/02 01:59:10;;;;;;;1.50;1.00;;;22.40;64.80;;;;;;4938641;29;20481;-91
2024/01/02 02:01:37;;;;;;;2.30;1.00;;;22.40;64.70;;;;;;4955487;29;20804;-90
2024/01/02 02:04:05;;;;;;;1.50;1.03;;;22.40;64.80;;;;;;4955543;29;20849;-91
2024/01/02 02:06:31;;;;;;;1.40;0.90;;;22.40;64.70;;;;;;4955280;29;21044;-90
2024/01/02 02:09:00;;;;;;;1.80;0.80;;;22.40;64.70;;;;;;4955388;29;20456;-91
2024/01/02 02:11:27;;;;;;;1.87;0.87;;;22.40;64.70;;;;;;4955102;29;20540;-91
2024/01/02 02:13:54;;;;;;;1.20;0.80;;;22.40;64.70;;;;;;4955393;29;20441;-91
2024/01/02 02:16:21;;;;;;;1.33;0.90;;;22.40;64.70;;;;;;4955292;29;20536;-91
2024/01/02 02:18:48;;;;;;;1.30;0.90;;;22.30;64.60;;;;;;4955360;29;20536;-91
2024/01/02 02:21:15;;;;;;;1.23;0.77;;;22.40;64.60;;;;;;4955100;29;20565;-91
2024/01/02 02:23:43;;;;;;;1.33;1.00;;;22.50;64.70;;;;;;4955280;29;20532;-90
2024/01/02 02:26:09;;;;;;;1.70;1.10;;;22.40;64.60;;;;;;4955082;29;20532;-93
2024/01/02 02:28:37;;;;;;;1.67;1.03;;;22.40;65.40;;;;;;4955166;29;20576;-90
2024/01/02 02:31:04;;;;;;;1.20;0.80;;;22.40;64.60;;;;;;4955421;29;20487;-90
2024/01/02 02:33:31;;;;;;;1.40;0.70;;;22.40;64.60;;;;;;4955050;29;20972;-91
2024/01/02 02:35:58;;;;;;;1.30;0.80;;;22.50;64.70;;;;;;4955182;29;20618;-90
2024/01/02 02:38:25;;;;;;;1.20;0.90;;;22.50;64.70;;;;;;4955228;29;20484;-91
2024/01/02 02:40:53;;;;;;;1.70;1.07;;;22.40;64.60;;;;;;4955153;29;20455;-91
2024/01/02 02:43:20;;;;;;;1.27;0.90;;;22.40;64.50;;;;;;4955012;29;20517;-91
2024/01/02 02:45:47;;;;;;;2.00;1.03;;;22.50;64.70;;;;;;4955209;29;20433;-92
2024/01/02 02:48:13;;;;;;;1.93;1.10;;;22.40;65.40;;;;;;4955623;29;20496;-91
2024/01/02 02:50:40;;;;;;;2.17;0.90;;;22.40;64.50;;;;;;4955327;29;20872;-91
2024/01/02 02:53:07;;;;;;;1.60;0.90;;;22.40;64.50;;;;;;4954645;29;20545;-91
2024/01/02 02:55:34;;;;;;;1.80;0.80;;;22.40;64.50;;;;;;4954718;29;20442;-91
2024/01/02 02:58:02;;;;;;;1.30;1.00;;;22.40;64.60;;;;;;4954819;29;20810;-91
2024/01/02 03:00:29;;;;;;;1.30;0.80;;;22.50;64.60;;;;;;4955218;29;20445;-92
2024/01/02 03:02:56;;;;;;;1.30;0.83;;;22.40;64.50;;;;;;4955517;28;20484;-91
2024/01/02 03:05:23;;;;;;;1.10;0.70;;;22.40;64.40;;;;;;4958159;29;20465;-91
2024/01/02 03:07:50;;;;;;;1.20;0.70;;;22.40;64.50;;;;;;4958086;29;20501;-91
2024/01/02 03:10:18;;;;;;;1.23;0.80;;;22.40;64.50;;;;;;4957980;29;20452;-92
2024/01/02 03:12:45;;;;;;;1.63;0.90;;;22.50;64.70;;;;;;4958473;29;20929;-91
2024/01/02 03:15:14;;;;;;;1.33;0.90;;;22.40;64.60;;;;;;4958038;29;20450;-91
2024/01/02 03:17:41;;;;;;;1.27;0.90;;;22.40;64.50;;;;;;4957989;29;20449;-91
2024/01/02 03:20:09;;;;;;;1.20;0.80;;;22.30;64.40;;;;;;4958440;29;20445;-91
2024/01/02 03:22:36;;;;;;;2.00;1.13;;;22.40;64.50;;;;;;4958061;29;20802;-90
2024/01/02 03:25:04;;;;;;;1.40;0.83;;;22.40;64.40;;;;;;4957779;29;20528;-91
2024/01/02 03:27:31;;;;;;;1.30;0.90;;;22.30;64.40;;;;;;4958016;29;20485;-92
2024/01/02 03:29:58;;;;;;;1.60;0.70;;;22.30;64.40;;;;;;4957681;29;20489;-91
2024/01/02 03:32:27;;;;;;;1.70;1.00;;;22.40;64.40;;;;;;4957866;29;20445;-90
2024/01/02 03:34:54;;;;;;;1.20;0.80;;;22.40;64.40;;;;;;4957584;29;20941;-90
2024/01/02 03:37:21;;;;;;;1.30;0.83;;;22.30;64.30;;;;;;4957932;29;20442;-91
2024/01/02 03:39:48;;;;;;;1.73;0.70;;;22.40;64.40;;;;;;4958533;29;20533;-91
2024/01/02 03:42:15;;;;;;;1.20;0.60;;;22.30;64.30;;;;;;4957618;29;20446;-92
2024/01/02 03:44:41;;;;;;;2.20;1.07;;;22.30;64.20;;;;;;4957254;29;20480;-90
2024/01/02 03:47:08;;;;;;;1.27;0.80;;;22.30;64.30;;;;;;4957370;29;20473;-91
2024/01/02 03:49:36;;;;;;;1.90;0.87;;;22.30;64.30;;;;;;4957780;29;20450;-91
2024/01/02 03:52:06;;;;;;;1.83;0.90;;;22.30;64.30;;;;;;4957807;29;20497;-91
2024/01/02 03:54:33;;;;;;;1.40;0.83;;;22.30;64.30;;;;;;4957947;29;20449;-91
2024/01/02 03:56:59;;;;;;;1.40;0.80;;;22.30;64.30;;;;;;4957739;29;20467;-91
2024/01/02 03:59:26;;;;;;;1.20;0.77;;;22.30;64.30;;;;;;4957503;29;20532;-92
2024/01/02 04:01:53;;;;;;;1.33;0.70;;;22.30;64.30;;;;;;4957122;29;20529;-91
2024/01/02 04:04:20;;;;;;;1.40;0.83;;;22.30;64.30;;;;;;4957610;29;20957;-91
2024/01/02 04:06:48;;;;;;;1.20;0.70;;;22.30;64.30;;;;;;4957191;29;20483;-92
2024/01/02 04:09:15;;;;;;;1.33;0.70;;;22.30;64.30;;;;;;4957245;29;20592;-92
2024/01/02 04:11:42;;;;;;;1.20;0.80;;;22.30;64.20;;;;;;4957097;29;20541;-91
2024/01/02 04:14:09;;;;;;;1.10;0.70;;;22.30;64.20;;;;;;4957031;28;20461;-90
2024/01/02 04:16:36;;;;;;;1.50;0.90;;;22.30;64.10;;;;;;4957060;29;20456;-91
2024/01/02 04:19:03;;;;;;;1.50;0.90;;;22.30;64.10;;;;;;4957019;29;20866;-91
2024/01/02 04:21:30;;;;;;;1.30;0.80;;;22.30;64.20;;;;;;4956792;29;20821;-91
2024/01/02 04:23:58;;;;;;;1.27;0.73;;;22.30;64.20;;;;;;4956907;29;20787;-91
2024/01/02 04:26:25;;;;;;;1.20;0.70;;;22.30;64.20;;;;;;4956908;29;20814;-91
2024/01/02 04:28:52;;;;;;;1.60;1.00;;;22.30;64.20;;;;;;4956911;29;20495;-91
2024/01/02 04:31:19;;;;;;;1.30;0.80;;;22.30;64.30;;;;;;4957578;29;20450;-92
2024/01/02 04:33:46;;;;;;;1.33;0.80;;;22.40;65.20;;;;;;4956622;29;20482;-90
2024/01/02 04:36:13;;;;;;;1.10;0.70;;;22.30;64.30;;;;;;4956759;29;20806;-90
2024/01/02 04:38:39;;;;;;;1.10;0.80;;;22.30;64.20;;;;;;4956484;29;20442;-92
2024/01/02 04:41:08;;;;;;;1.40;0.67;;;22.30;65.00;;;;;;4956594;29;20441;-90
2024/01/02 04:43:34;;;;;;;1.10;0.60;;;22.30;64.20;;;;;;4956272;29;21091;-92
2024/01/02 04:46:03;;;;;;;1.33;0.93;;;22.30;64.10;;;;;;4956368;29;20488;-92
2024/01/02 04:48:30;;;;;;;1.20;0.60;;;22.30;64.20;;;;;;4956617;29;20501;-91
2024/01/02 04:50:56;;;;;;;1.30;0.70;;;22.30;64.20;;;;;;4956319;29;20474;-91
2024/01/02 04:53:23;;;;;;;1.40;0.80;;;22.30;64.20;;;;;;4956268;29;20453;-91
2024/01/02 04:55:50;;;;;;;1.27;0.90;;;22.30;64.20;;;;;;4956534;29;20534;-92
2024/01/02 04:58:18;;;;;;;1.23;0.70;;;22.30;64.20;;;;;;4956458;29;20545;-91
2024/01/02 05:00:45;;;;;;;1.33;0.70;;;22.30;64.20;;;;;;4956202;29;20452;-93
2024/01/02 05:03:12;;;;;;;1.10;0.80;;;22.30;64.20;;;;;;4956288;29;20452;-93
2024/01/02 05:05:39;;;;;;;1.10;0.70;;;22.30;64.10;;;;;;4956985;29;20446;-92
2024/01/02 05:08:06;;;;;;;1.30;0.73;;;22.30;64.20;;;;;;4956385;29;20572;-92
2024/01/02 05:10:33;;;;;;;1.20;0.70;;;22.30;64.20;;;;;;4956210;29;20445;-91
2024/01/02 05:13:01;;;;;;;1.40;0.60;;;22.30;64.10;;;;;;4956646;29;20466;-91
2024/01/02 05:15:29;;;;;;;1.87;1.00;;;22.30;64.10;;;;;;4956211;29;20448;-91
2024/01/02 05:17:56;;;;;;;1.20;0.87;;;22.40;64.30;;;;;;4956023;29;20460;-91
2024/01/02 05:20:22;;;;;;;1.30;0.80;;;22.40;64.20;;;;;;4956260;29;20454;-91
2024/01/02 05:22:49;;;;;;;1.20;0.80;;;22.30;64.20;;;;;;4955950;29;20218;-90
2024/01/02 05:25:16;;;;;;;1.10;0.70;;;22.40;64.30;;;;;;4955463;28;20477;-93
2024/01/02 05:27:43;;;;;;;1.10;0.70;;;22.40;64.30;;;;;;4955531;29;20477;-90
2024/01/02 05:30:10;;;;;;;1.80;0.70;;;22.40;64.20;;;;;;4956609;29;20918;-91
2024/01/02 05:32:39;;;;;;;1.10;0.70;;;22.40;64.20;;;;;;4955678;29;20441;-91
2024/01/02 05:35:06;;;;;;;3.53;0.80;;;22.40;64.20;;;;;;4955867;29;20536;-92
2024/01/02 05:37:33;;;;;;;1.33;0.70;;;22.40;64.20;;;;;;4955801;29;20552;-91
2024/01/02 05:39:59;;;;;;;1.63;0.70;;;22.40;64.20;;;;;;4955787;29;20449;-90
2024/01/02 05:42:40;;;;;;;1.10;0.60;;;22.40;64.10;;;;;;4955521;29;20452;-90
2024/01/02 05:45:08;;;;;;;1.20;0.70;;;22.50;64.20;;;;;;4955457;29;20226;-91
2024/01/02 05:47:35;;;;;;;1.07;0.63;;;22.40;64.20;;;;;;4955663;29;20450;-91
2024/01/02 05:50:03;;;;;;;1.10;0.70;;;22.40;65.00;;;;;;4955650;29;20497;-90
2024/01/02 05:52:30;;;;;;;1.30;0.70;;;22.40;64.10;;;;;;4955557;29;20472;-90
2024/01/02 05:54:56;;;;;;;1.10;0.60;;;22.50;64.20;;;;;;4955375;29;20442;-93
2024/01/02 05:57:23;;;;;;;1.10;0.70;;;22.50;64.20;;;;;;4955814;29;20457;-90
2024/01/02 05:59:50;;;;;;;1.60;1.07;;;22.50;64.20;;;;;;4955417;29;20444;-93
2024/01/02 06:02:17;;;;;;;1.30;0.70;;;22.50;64.20;;;;;;4955979;29;20952;-90
2024/01/02 06:04:44;;;;;;;1.10;0.70;;;22.50;64.20;;;;;;4956014;29;20446;-93
2024/01/02 06:07:12;;;;;;;1.10;0.60;;;22.50;64.20;;;;;;4955848;29;20450;-91
2024/01/02 06:09:39;;;;;;;1.10;0.60;;;22.50;64.20;;;;;;4955394;29;20493;-93
2024/01/02 06:12:06;;;;;;;1.17;0.60;;;22.50;64.20;;;;;;4955416;29;20504;-90
2024/01/02 06:14:33;;;;;;;2.00;0.73;;;22.50;64.20;;;;;;4955443;29;20460;-91
2024/01/02 06:17:00;;;;;;;1.10;0.60;;;22.50;64.20;;;;;;4955249;29;20804;-93
2024/01/02 06:19:27;;;;;;;1.10;0.73;;;22.50;64.20;;;;;;4955158;29;20540;-91
2024/01/02 06:21:53;;;;;;;1.20;0.80;;;22.50;64.20;;;;;;4955237;29;20461;-93
2024/01/02 06:24:22;;;;;;;1.10;0.60;;;22.50;64.10;;;;;;4955444;29;20484;-91
2024/01/02 06:26:48;;;;;;;1.10;0.70;;;22.50;64.10;;;;;;4954992;29;20938;-92
2024/01/02 06:29:15;;;;;;;1.10;0.70;;;22.50;64.10;;;;;;4955443;29;20485;-93
2024/01/02 06:31:42;;;;;;;1.00;0.60;;;22.50;64.20;;;;;;4955332;29;20484;-93
2024/01/02 06:34:09;;;;;;;1.20;0.70;;;22.50;64.10;;;;;;4955232;29;20450;-90
2024/01/02 06:36:36;;;;;;;1.10;0.60;;;22.50;64.10;;;;;;4954862;28;20948;-91
2024/01/02 06:39:03;;;;;;;1.10;0.60;;;22.60;64.20;;;;;;4957795;29;20484;-91
2024/01/02 06:41:31;;;;;;;1.00;0.60;;;22.50;64.10;;;;;;4958777;29;20457;-91
2024/01/02 06:43:58;;;;;;;1.30;0.70;;;22.60;64.20;;;;;;4958601;29;20473;-89
2024/01/02 06:46:25;;;;;;;1.00;0.50;;;22.50;64.10;;;;;;4958666;29;20442;-94
2024/01/02 06:48:52;;;;;;;1.00;0.60;;;22.50;64.10;;;;;;4958555;29;20481;-91
2024/01/02 06:51:18;;;;;;;1.30;0.70;;;22.50;64.10;;;;;;4958566;29;20828;-91
2024/01/02 06:53:45;;;;;;;1.17;0.80;;;22.50;64.20;;;;;;4958684;29;20449;-92
2024/01/02 06:56:12;;;;;;;1.00;0.60;;;22.50;64.20;;;;;;4958358;29;20449;-91
2024/01/02 06:58:44;;;;;;;1.10;0.60;;;22.50;64.20;;;;;;4958701;29;20449;-90
2024/01/02 07:01:14;;;;;;;1.17;0.80;;;22.60;64.30;;;;;;4958613;29;20448;-92
2024/01/02 07:03:41;;;;;;;1.00;0.60;;;22.50;64.20;;;;;;4958766;29;20510;-90
2024/01/02 07:06:08;;;;;;;1.00;0.60;;;22.50;64.20;;;;;;4958736;29;20437;-90
2024/01/02 07:08:35;;;;;;;1.33;0.70;;;22.50;64.20;;;;;;4958268;29;20792;-90
2024/01/02 07:11:01;;;;;;;1.07;0.60;;;22.50;64.20;;;;;;4958480;29;20990;-90
2024/01/02 07:13:28;;;;;;;1.10;0.60;;;22.50;64.20;;;;;;4958233;29;20536;-91
2024/01/02 07:15:56;;;;;;;1.20;0.70;;;22.50;64.20;;;;;;4958109;29;20540;-93
2024/01/02 07:18:23;;;;;;;1.40;0.80;;;22.50;64.20;;;;;;4958088;29;20869;-91
2024/01/02 07:20:50;;;;;;;1.20;0.70;;;22.50;64.20;;;;;;4957899;29;21040;-91
2024/01/02 07:23:18;;;;;;;1.00;0.60;;;22.50;64.20;;;;;;4958221;29;20881;-93
2024/01/02 07:25:45;;;;;;;1.00;0.60;;;22.50;64.20;;;;;;4959179;29;20585;-92
2024/01/02 07:28:12;;;;;;;1.10;0.63;;;22.50;64.20;;;;;;4958996;29;20934;-90
2024/01/02 07:30:38;;;;;;;1.17;0.73;;;22.60;64.30;;;;;;4957827;29;20960;-90
2024/01/02 07:33:07;;;;;;;1.20;0.63;;;22.60;64.30;;;;;;4957700;29;20449;-91
2024/01/02 07:35:34;;;;;;;1.20;0.70;;;22.60;64.20;;;;;;4957950;29;20457;-89
2024/01/02 07:38:02;;;;;;;1.10;0.67;;;22.60;64.30;;;;;;4958243;29;20960;-90
2024/01/02 07:40:29;;;;;;;5.40;0.80;;;22.60;64.30;;;;;;4957467;29;20465;-92
2024/01/02 07:42:56;;;;;;;5.97;0.67;;;22.60;64.30;;;;;;4957758;29;20541;-90
2024/01/02 07:45:23;;;;;;;1.10;0.60;;;22.70;64.40;;;;;;4940165;29;20474;-88
2024/01/02 07:47:49;;;;;;;1.33;0.80;;;22.60;64.50;;;;;;4938363;29;21022;-91
2024/01/02 07:50:18;;;;;;;1.10;0.60;;;22.60;64.50;;;;;;4937808;29;20490;-90
2024/01/02 07:52:47;;;;;;;1.80;0.83;;;22.70;64.60;;;;;;4938119;29;20470;-90
2024/01/02 07:55:14;;;;;;;4.10;0.60;;;22.60;64.40;;;;;;4938357;29;20451;-92
2024/01/02 07:57:41;;;;;;;2.03;0.60;;;22.70;64.40;;;;;;4938363;29;20446;-90
2024/01/02 08:00:09;;;;;;;1.00;0.60;;;22.60;64.30;;;;;;4938089;29;20534;-91
2024/01/02 08:02:36;;;;;;;1.07;0.60;;;22.70;64.40;;;;;;4938017;29;20475;-92
2024/01/02 08:05:03;;;;;;;1.40;0.73;;;22.60;64.40;;;;;;4938139;29;20447;-90
2024/01/02 08:07:31;;;;;;;1.20;0.60;;;22.60;64.50;;;;;;4938094;29;20942;-92
2024/01/02 08:09:58;;;;;;;1.10;0.67;;;22.70;64.70;;;;;;4938125;29;20581;-91
2024/01/02 08:12:25;;;;;;;1.40;0.80;;;22.70;64.80;;;;;;4937985;29;20455;-91
2024/01/02 08:14:52;;;;;;;1.20;0.60;;;22.70;64.80;;;;;;4938076;29;20457;-92
2024/01/02 08:17:23;;;;;;;1.20;0.60;;;22.70;64.80;;;;;;4938662;29;20889;-91
2024/01/02 08:19:50;;;;;;;1.63;0.60;;;22.70;64.70;;;;;;4937931;29;20439;-92
2024/01/02 08:22:17;;;;;;;1.93;0.70;;;22.80;65.10;;;;;;4938171;29;20473;-90
2024/01/02 08:24:45;;;;;;;1.20;0.70;;;22.70;64.90;;;;;;4937566;29;20455;-91
2024/01/02 08:27:12;;;;;;;1.40;0.70;;;22.80;64.90;;;;;;4937589;29;20469;-92
2024/01/02 08:29:39;;;;;;;1.00;0.60;;;22.80;65.20;;;;;;4937764;29;20581;-90
2024/01/02 08:32:06;;;;;;;1.00;0.60;;;22.70;64.90;;;;;;4937554;29;20529;-92
2024/01/02 08:34:33;;;;;;;1.10;0.60;;;22.70;65.00;;;;;;4937380;29;20458;-90
2024/01/02 08:37:00;;;;;;;3.67;0.90;;;22.70;65.10;;;;;;4938801;29;20446;-90
2024/01/02 08:39:28;;;;;;;1.30;0.67;;;22.70;65.00;;;;;;4937066;29;20502;-91
2024/01/02 08:41:56;;;;;;;1.57;0.70;;;22.60;62.60;;;;;;4936480;29;20455;-91
2024/01/02 08:44:23;;;;;;;3.43;0.80;;;22.70;62.80;;;;;;4938208;29;20484;-90
2024/01/02 08:46:50;;;;;;;1.27;0.70;;;22.60;63.10;;;;;;4937296;29;20887;-92
2024/01/02 08:49:17;;;;;;;2.20;0.60;;;22.60;64.30;;;;;;4937068;29;20531;-90
2024/01/02 08:51:43;;;;;;;1.67;0.70;;;22.60;64.50;;;;;;4937294;29;20479;-90
2024/01/02 08:54:10;;;;;;;1.20;0.80;;;22.60;64.60;;;;;;4937871;29;20443;-92
2024/01/02 08:56:37;;;;;;;3.73;0.90;;;22.70;64.60;;;;;;4937882;29;20457;-90
2024/01/02 08:59:06;;;;;;;2.90;0.90;;;22.70;64.80;;;;;;4937032;29;21354;-92
2024/01/02 09:01:33;;;;;;;3.90;1.00;;;22.70;64.70;;;;;;4938783;29;20826;-92
2024/01/02 09:04:00;;;;;;;3.73;0.80;;;22.70;65.00;;;;;;4942161;29;20453;-92
2024/01/02 09:06:27;;;;;;;1.97;0.80;;;22.70;65.20;;;;;;4940590;29;20478;-95
2024/01/02 09:08:57;;;;;;;1.00;0.60;;;22.70;65.90;;;;;;4939917;29;20946;-92
2024/01/02 09:11:24;;;;;;;1.80;0.80;;;22.70;65.20;;;;;;4938786;29;20452;-90
2024/01/02 09:13:51;;;;;;;1.30;0.70;;;22.70;65.10;;;;;;4938676;29;20450;-91
2024/01/02 09:16:20;;;;;;;3.20;1.27;;;22.80;65.00;;;;;;4938657;29;20458;-92
2024/01/02 09:18:46;;;;;;;2.63;0.73;;;22.80;65.00;;;;;;4937329;29;20482;-91
2024/01/02 09:21:13;;;;;;;5.60;0.60;;;22.80;65.20;;;;;;4937847;29;20495;-91
2024/01/02 09:23:40;;;;;;;1.23;0.80;;;22.70;65.10;;;;;;4937454;29;20569;-91
2024/01/02 09:26:08;;;;;;;5.47;1.23;;;22.80;65.30;;;;;;4937439;29;20442;-91
2024/01/02 09:31:32;;;;;;;1.90;0.80;;;22.70;64.10;;;;;;5101581;23;20494;-89
2024/01/02 09:33:59;;;;;;;1.70;0.60;;;22.70;64.00;;;;;;4947519;29;20976;-95
2024/01/02 09:36:29;;;;;;;2.10;0.70;;;22.70;64.70;;;;;;4939212;29;20466;-88
2024/01/02 09:38:56;;;;;;;1.10;0.60;;;22.70;64.70;;;;;;4937173;29;20470;-88
2024/01/02 09:41:41;;;;;;;1.83;0.60;;;22.70;64.80;;;;;;4935818;29;20451;-88
2024/01/02 09:44:25;;;;;;;1.90;0.80;;;22.70;64.80;;;;;;4936520;29;20461;-89
2024/01/02 09:47:05;;;;;;;1.33;0.80;;;22.70;64.20;;;;;;4935894;29;20447;-89
2024/01/02 09:49:39;;;;;;;1.10;0.80;;;22.70;64.80;;;;;;4935596;29;20993;-89
2024/01/02 09:52:26;;;;;;;1.47;0.90;;;22.70;64.90;;;;;;4935574;29;20461;-89
2024/01/02 09:55:02;;;;;;;2.00;0.73;;;22.70;64.80;;;;;;4935380;29;20459;-91
2024/01/02 09:57:38;;;;;;;3.77;1.20;;;22.70;65.00;;;;;;4917203;29;20424;-89
2024/01/02 10:00:11;;;;;;;2.80;0.87;;;22.70;64.90;;;;;;4916488;29;20454;-89
2024/01/02 10:03:03;;;;;;;1.27;0.80;;;22.70;64.90;;;;;;4916582;29;20455;-89
2024/01/02 10:05:53;;;;;;;2.47;0.60;;;22.80;65.00;;;;;;4916612;29;20975;-91
2024/01/02 10:08:42;;;;;;;4.60;0.70;;;22.70;64.90;;;;;;4917394;29;20474;-89
2024/01/02 10:11:20;;;;;;;2.93;1.10;;;22.80;64.90;;;;;;4916383;29;20495;-89
2024/01/02 10:13:51;;;;;;;2.43;0.87;;;22.80;65.00;;;;;;4922859;29;20999;-89
2024/01/02 10:16:28;;;;;;;2.47;0.87;;;22.80;65.10;;;;;;4922735;29;20451;-91
2024/01/02 10:19:03;;;;;;;1.60;0.73;;;22.80;65.10;;;;;;4922956;29;20435;-92
2024/01/02 10:21:41;;;;;;;1.40;0.70;;;22.80;65.10;;;;;;4923796;29;20840;-91
2024/01/02 10:24:25;;;;;;;2.43;0.80;;;22.70;64.80;;;;;;4923183;29;20879;-89
2024/01/02 10:27:03;;;;;;;3.93;0.80;;;22.80;64.90;;;;;;4923339;29;20498;-89
2024/01/02 10:29:42;;;;;;;2.57;0.80;;;22.80;65.00;;;;;;4923330;29;20486;-96
2024/01/02 10:32:12;;;;;;;1.30;0.80;;;22.80;65.00;;;;;;4923925;29;21294;-87
2024/01/02 10:34:57;;;;;;;2.50;0.70;;;22.80;64.90;;;;;;4923301;29;20446;-87
2024/01/02 10:37:29;;;;;;;1.40;0.90;;;22.80;64.90;;;;;;4923146;29;20542;-88
2024/01/02 10:40:03;;;;;;;2.57;0.70;;;22.80;64.80;;;;;;4923491;29;20539;-87
2024/01/02 10:42:39;;;;;;;1.20;0.87;;;22.80;64.80;;;;;;4923276;29;20435;-88
2024/01/02 10:45:16;;;;;;;1.20;0.90;;;22.80;64.90;;;;;;4923227;29;20446;-90
2024/01/02 10:48:01;;;;;;;1.40;0.77;;;22.80;64.90;;;;;;4923158;29;20991;-87
2024/01/02 10:50:36;;;;;;;1.50;0.90;;;22.80;64.90;;;;;;4923116;29;20498;-91
2024/01/02 10:53:19;;;;;;;1.93;0.70;;;22.90;65.00;;;;;;4922887;29;20446;-87
2024/01/02 10:55:50;;;;;;;2.60;0.80;;;22.90;65.00;;;;;;4923019;29;20439;-90
2024/01/02 10:58:21;;;;;;;1.40;0.80;;;22.80;65.00;;;;;;4924459;29;20507;-88
2024/01/02 11:00:58;;;;;;;1.83;0.60;;;22.90;65.20;;;;;;4923075;29;20465;-87
2024/01/02 11:03:28;;;;;;;1.80;0.90;;;22.90;65.20;;;;;;4922784;29;20485;-88
2024/01/02 11:06:08;;;;;;;1.60;0.73;;;22.90;65.30;;;;;;4937100;29;20942;-94
2024/01/02 11:08:43;;;;;;;3.20;1.07;;;22.90;65.60;;;;;;4953852;29;20438;-95
2024/01/02 11:13:43;;;;;;;4.23;1.00;;;22.90;66.10;;;;;;5161867;23;20542;-92
2024/01/02 11:16:16;;;;;;;1.60;0.90;;;22.90;66.20;;;;;;4980126;28;20445;-90
2024/01/02 11:18:47;;;;;;;1.37;0.80;;;22.90;66.10;;;;;;4960829;28;20434;-90
2024/01/02 11:21:24;;;;;;;1.83;0.80;;;22.90;66.30;;;;;;4967033;28;20469;-90
2024/01/02 11:23:54;;;;;;;2.30;0.73;;;22.90;66.60;;;;;;4941868;29;20447;-92
2024/01/02 11:26:24;;;;;;;1.30;0.73;;;22.90;66.60;;;;;;4959163;29;20433;-88
2024/01/02 11:28:52;;;;;;;2.80;0.90;;;22.90;66.80;;;;;;4957522;29;20450;-89
2024/01/02 11:31:21;;;;;;;3.33;1.10;;;22.90;66.90;;;;;;4957212;29;20489;-93
2024/01/02 11:34:04;;;;;;;11.80;0.90;;;22.90;67.00;;;;;;4957705;29;20449;-88
2024/01/02 11:36:46;;;;;;;3.70;0.93;;;22.90;67.00;;;;;;4957723;29;20446;-89
2024/01/02 11:39:14;;;;;;;5.67;1.13;;;23.00;67.00;;;;;;4957471;29;20448;-89
2024/01/02 11:41:59;;;;;;;1.10;0.60;;;23.00;67.10;;;;;;4958456;29;20450;-89
2024/01/02 11:44:37;;;;;;;1.80;0.80;;;23.00;67.10;;;;;;4957382;29;20521;-89
2024/01/02 11:47:08;;;;;;;1.90;0.90;;;23.00;67.10;;;;;;4957435;29;20441;-88
2024/01/02 11:49:44;;;;;;;1.47;0.87;;;23.00;67.10;;;;;;4957734;29;20440;-91
2024/01/02 11:52:20;;;;;;;3.40;1.10;;;22.90;67.00;;;;;;4957177;28;20465;-91
2024/01/02 11:54:57;;;;;;;3.90;0.87;;;23.00;67.20;;;;;;4957853;29;20440;-94
2024/01/02 11:57:28;;;;;;;6.27;0.83;;;23.00;66.90;;;;;;4957725;29;20437;-90
2024/01/02 12:00:00;;;;;;;1.73;0.73;;;22.90;66.60;;;;;;4957175;29;20450;-91
2024/01/02 12:02:36;;;;;;;3.33;0.80;;;22.90;66.80;;;;;;4957520;29;20438;-89
2024/01/02 12:05:11;;;;;;;1.40;1.07;;;22.90;66.60;;;;;;4957320;29;20972;-89
2024/01/02 12:07:41;;;;;;;1.60;0.77;;;22.90;66.70;;;;;;4957768;29;20433;-88
2024/01/02 12:10:09;;;;;;;4.80;0.90;;;22.90;66.60;;;;;;4957096;29;20497;-88
2024/01/02 12:12:48;;;;;;;1.13;0.77;;;22.90;67.30;;;;;;4956831;29;20473;-89
2024/01/02 12:15:20;;;;;;;1.70;0.87;;;22.90;66.40;;;;;;4958608;29;20462;-92
2024/01/02 12:17:54;;;;;;;5.03;0.87;;;22.90;66.40;;;;;;4958271;29;20461;-93
2024/01/02 12:20:24;;;;;;;1.83;0.90;;;22.90;66.40;;;;;;4960480;28;20466;-92
2024/01/02 12:22:53;;;;;;;1.20;0.70;;;22.90;67.30;;;;;;4959766;29;20524;-92
2024/01/02 12:25:21;;;;;;;1.80;0.97;;;22.90;66.50;;;;;;4958365;29;20437;-92
2024/01/02 12:27:50;;;;;;;3.07;0.87;;;22.90;66.50;;;;;;4958656;29;20442;-91
2024/01/02 12:30:23;;;;;;;4.70;1.00;;;22.90;66.50;;;;;;4957901;29;20473;-91
2024/01/02 12:33:05;;;;;;;1.63;1.00;;;22.90;66.50;;;;;;4959246;29;20450;-93
2024/01/02 12:35:42;;;;;;;3.37;1.00;;;22.90;66.60;;;;;;4958478;28;20894;-92
2024/01/02 12:38:16;;;;;;;5.30;1.30;;;22.90;66.60;;;;;;4959055;29;20826;-92
2024/01/02 12:40:46;;;;;;;4.73;1.93;;;22.90;66.60;;;;;;4957974;29;20937;-88
2024/01/02 12:43:19;;;;;;;7.77;2.00;;;22.90;66.60;;;;;;4958657;29;20442;-91
2024/01/02 12:45:52;;;;;;;4.83;1.90;;;23.00;66.70;;;;;;4958097;29;20506;-89
2024/01/02 12:48:23;;;;;;;7.53;1.80;;;23.00;66.80;;;;;;4956148;29;20990;-89
2024/01/02 12:50:51;;;;;;;6.00;2.37;;;23.00;66.90;;;;;;4956149;28;20996;-91
2024/01/02 12:53:21;;;;;;;4.13;1.63;;;23.00;67.10;;;;;;4955913;29;20446;-89
2024/01/02 12:55:54;;;;;;;11.47;2.07;;;23.10;67.10;;;;;;4956615;29;20446;-89
2024/01/02 12:58:21;;;;;;;4.90;1.93;;;23.10;67.20;;;;;;4970268;28;20495;-88
2024/01/02 13:00:48;;;;;;;8.40;2.27;;;23.10;67.40;;;;;;4976099;28;20457;-88